Time;durP1;ratioP1;P1;durP2;ratioP2;P2;SDS_P1;SDS_P2;PMS_P1;PMS_P2;Temp;Humidity;BMP_temperature;BMP_pressure;BME280_temperature;BME280_humidity;BME280_pressure;Samples;Min_cycle;Max_cycle;Signal;HPM_P1;HPM_P2
2022/12/28 00:00:55;;;;;;;3.93;1.23;;;7.80;1.00;;;;;;5029708;28;20174;-86
2022/12/28 00:03:20;;;;;;;8.33;1.73;;;7.80;1.00;;;;;;5029725;28;20186;-86
2022/12/28 00:05:46;;;;;;;4.30;1.63;;;7.80;98.40;;;;;;5020773;28;20614;-86
2022/12/28 00:08:11;;;;;;;3.23;1.30;;;7.80;99.90;;;;;;5016820;28;20696;-88
2022/12/28 00:10:37;;;;;;;5.07;1.50;;;7.80;99.90;;;;;;5022374;28;20183;-86
2022/12/28 00:13:03;;;;;;;4.40;1.33;;;7.90;99.90;;;;;;5028018;28;20178;-87
2022/12/28 00:15:28;;;;;;;7.83;2.00;;;7.90;99.90;;;;;;5017365;28;20221;-86
2022/12/28 00:17:56;;;;;;;7.10;1.80;;;7.90;99.90;;;;;;5029794;28;20209;-86
2022/12/28 00:20:22;;;;;;;2.85;1.35;;;7.90;99.90;;;;;;5028286;28;20693;-88
2022/12/28 00:22:47;;;;;;;2.30;1.30;;;7.90;99.90;;;;;;5012554;28;20195;-86
2022/12/28 00:25:13;;;;;;;4.10;1.43;;;7.90;99.90;;;;;;5029494;28;21110;-86
2022/12/28 00:27:39;;;;;;;4.03;1.50;;;7.90;99.90;;;;;;5029276;28;20209;-86
2022/12/28 00:30:05;;;;;;;4.20;2.03;;;7.90;99.90;;;;;;5024477;28;20654;-86
2022/12/28 00:32:31;;;;;;;4.38;1.90;;;8.00;99.90;;;;;;5027982;28;20190;-86
2022/12/28 00:34:56;;;;;;;3.87;1.77;;;8.00;99.90;;;;;;5012886;28;20175;-86
2022/12/28 00:37:22;;;;;;;3.27;1.70;;;8.00;1.00;;;;;;5027590;28;20179;-86
2022/12/28 00:39:47;;;;;;;2.00;1.73;;;8.00;1.00;;;;;;5030341;28;20210;-86
2022/12/28 00:42:13;;;;;;;2.90;1.60;;;8.00;1.00;;;;;;5028912;28;20344;-87
2022/12/28 00:44:39;;;;;;;4.23;1.67;;;8.10;1.00;;;;;;5031266;28;20717;-86
2022/12/28 00:47:04;;;;;;;7.45;2.13;;;8.10;1.00;;;;;;5032060;28;20174;-86
2022/12/28 00:49:30;;;;;;;3.63;1.73;;;8.10;1.00;;;;;;5033275;28;20212;-86
2022/12/28 00:51:55;;;;;;;6.20;1.63;;;8.10;1.00;;;;;;5031253;28;20224;-86
2022/12/28 00:54:21;;;;;;;4.77;2.17;;;8.10;51.70;;;;;;5032865;28;20182;-86
2022/12/28 00:56:46;;;;;;;8.43;2.20;;;8.10;99.90;;;;;;5024081;28;20190;-86
2022/12/28 00:59:12;;;;;;;3.97;2.20;;;8.10;1.00;;;;;;5032148;28;20267;-86
2022/12/28 01:01:37;;;;;;;4.73;1.50;;;8.10;1.00;;;;;;5032227;28;20197;-86
2022/12/28 01:04:03;;;;;;;4.30;1.87;;;8.10;99.90;;;;;;5028818;28;20705;-86
2022/12/28 01:06:29;;;;;;;2.00;1.53;;;8.10;99.90;;;;;;5030630;28;20218;-89
2022/12/28 01:08:55;;;;;;;3.53;1.90;;;8.10;99.90;;;;;;5030655;28;20194;-87
2022/12/28 01:11:24;;;;;;;3.10;1.47;;;8.10;1.00;;;;;;5034325;28;20417;-87
2022/12/28 01:13:51;;;;;;;4.35;1.77;;;8.10;1.00;;;;;;5034617;28;20265;-86
2022/12/28 01:16:25;;;;;;;2.25;1.52;;;8.10;1.00;;;;;;5018931;28;20199;-86
2022/12/28 01:18:53;;;;;;;4.40;1.98;;;8.10;1.00;;;;;;5035982;28;20202;-86
2022/12/28 01:21:21;;;;;;;2.67;1.77;;;8.10;1.00;;;;;;5036185;28;20694;-88
2022/12/28 01:24:03;;;;;;;6.30;2.30;;;8.10;1.00;;;;;;5057217;28;20240;-88
2022/12/28 01:26:29;;;;;;;2.97;1.90;;;8.10;1.00;;;;;;5039014;28;20221;-86
2022/12/28 01:28:55;;;;;;;2.50;1.50;;;8.20;1.00;;;;;;5032525;28;20198;-86
2022/12/28 01:31:21;;;;;;;2.70;1.63;;;8.20;1.00;;;;;;5031459;28;20443;-86
2022/12/28 01:33:57;;;;;;;3.75;1.40;;;8.20;1.00;;;;;;5030554;28;20672;-86
2022/12/28 01:36:25;;;;;;;8.13;2.00;;;8.20;1.00;;;;;;5014917;28;20193;-87
2022/12/28 01:38:59;;;;;;;2.75;1.45;;;8.20;1.00;;;;;;5030941;28;20452;-86
2022/12/28 01:41:26;;;;;;;3.00;1.73;;;8.20;1.00;;;;;;5016773;28;20269;-86
2022/12/28 01:43:51;;;;;;;7.80;2.33;;;8.20;1.00;;;;;;5029280;28;20805;-86
2022/12/28 01:46:23;;;;;;;2.77;1.47;;;8.30;1.00;;;;;;5030906;28;20210;-86
2022/12/28 01:48:59;;;;;;;7.57;2.10;;;8.30;1.00;;;;;;5017346;28;20627;-86
2022/12/28 01:51:28;;;;;;;9.30;2.13;;;8.30;1.00;;;;;;5017503;28;20190;-86
2022/12/28 01:53:54;;;;;;;5.40;2.00;;;8.30;1.00;;;;;;5012064;28;20472;-87
2022/12/28 01:56:21;;;;;;;2.90;1.30;;;8.30;1.00;;;;;;5030752;28;20440;-86
2022/12/28 01:58:47;;;;;;;3.67;1.75;;;8.30;1.00;;;;;;5028955;28;20210;-86
2022/12/28 02:01:13;;;;;;;5.23;2.13;;;8.30;1.00;;;;;;5012323;28;20202;-86
2022/12/28 02:03:39;;;;;;;1.60;1.30;;;8.40;1.00;;;;;;5029504;28;20476;-86
2022/12/28 02:06:10;;;;;;;4.60;1.53;;;8.40;1.00;;;;;;5030176;28;20218;-86
2022/12/28 02:09:02;;;;;;;4.03;1.80;;;8.40;99.90;;;;;;5028596;28;20229;-86
2022/12/28 02:11:28;;;;;;;3.23;1.80;;;8.40;99.90;;;;;;5020853;28;20445;-86
2022/12/28 02:13:54;;;;;;;2.60;1.40;;;8.40;99.90;;;;;;5010631;28;20439;-86
2022/12/28 02:16:20;;;;;;;2.40;1.83;;;8.50;99.90;;;;;;5026962;28;20217;-86
2022/12/28 02:18:47;;;;;;;2.07;1.70;;;8.50;99.90;;;;;;5017423;28;21000;-86
2022/12/28 02:21:18;;;;;;;1.70;1.60;;;8.60;99.90;;;;;;5019757;28;20186;-86
2022/12/28 02:24:18;;;;;;;2.13;1.67;;;8.60;99.90;;;;;;5028676;28;20983;-85
2022/12/28 02:26:48;;;;;;;4.77;3.00;;;8.60;99.90;;;;;;5015560;28;20478;-87
2022/12/28 02:29:52;;;;;;;3.10;2.17;;;8.60;99.90;;;;;;5028182;28;20530;-86
2022/12/28 02:32:40;;;;;;;2.00;1.33;;;8.60;99.90;;;;;;5010506;28;21004;-86
2022/12/28 02:35:47;;;;;;;2.65;1.70;;;8.60;45.20;;;;;;5013595;28;20447;-84
2022/12/28 02:38:25;;;;;;;3.40;1.73;;;8.60;20.40;;;;;;5019641;28;20214;-86
2022/12/28 02:40:57;;;;;;;2.20;1.70;;;8.60;1.00;;;;;;5021745;28;20509;-86
2022/12/28 02:43:23;;;;;;;5.00;1.73;;;8.60;1.00;;;;;;5028719;28;20429;-86
2022/12/28 02:51:43;;;;;;;2.40;1.60;;;8.70;1.00;;;;;;5025961;28;20436;-87
2022/12/28 02:57:39;;;;;;;5.37;1.80;;;8.70;1.00;;;;;;5027893;28;20467;-85
2022/12/28 03:00:15;;;;;;;2.30;1.40;;;8.70;1.00;;;;;;5024419;28;20798;-85
2022/12/28 03:03:11;;;;;;;2.43;1.60;;;8.80;1.00;;;;;;5028802;28;20449;-85
2022/12/28 03:09:11;;;;;;;4.03;1.70;;;8.80;1.00;;;;;;5027116;28;20534;-85
2022/12/28 03:11:49;;;;;;;5.13;1.77;;;8.80;1.00;;;;;;5020092;28;20441;-86
2022/12/28 03:14:25;;;;;;;6.60;2.03;;;8.80;1.00;;;;;;5028521;28;20503;-87
2022/12/28 03:31:06;;;;;;;2.47;1.83;;;8.90;1.00;;;;;;5027178;28;20431;-86
2022/12/28 03:33:46;;;;;;;7.53;2.10;;;8.90;1.00;;;;;;5029977;28;20511;-86
2022/12/28 03:36:49;;;;;;;3.50;1.90;;;9.00;99.90;;;;;;5024728;28;20497;-87
2022/12/28 03:39:26;;;;;;;2.50;2.07;;;9.00;99.90;;;;;;5017653;28;20480;-86
2022/12/28 03:44:53;;;;;;;6.03;2.00;;;9.00;99.90;;;;;;5026925;28;20519;-85
2022/12/28 03:47:22;;;;;;;9.53;2.23;;;9.00;99.90;;;;;;5030716;28;20435;-86
2022/12/28 03:49:48;;;;;;;4.90;1.97;;;9.00;99.90;;;;;;5029799;28;20456;-86
2022/12/28 03:52:14;;;;;;;5.40;2.57;;;9.00;99.90;;;;;;5029139;28;20479;-86
2022/12/28 03:54:40;;;;;;;4.57;2.70;;;9.00;99.90;;;;;;5024047;28;20958;-86
2022/12/28 03:57:05;;;;;;;6.33;2.40;;;9.10;99.90;;;;;;5023685;28;20455;-86
2022/12/28 03:59:31;;;;;;;2.97;2.30;;;9.10;99.90;;;;;;5026168;28;20209;-86
2022/12/28 04:02:17;;;;;;;2.17;1.97;;;9.10;99.90;;;;;;5031924;28;20185;-86
2022/12/28 04:04:42;;;;;;;3.63;2.20;;;9.10;99.90;;;;;;5028472;28;20259;-86
2022/12/28 04:07:08;;;;;;;5.20;2.10;;;9.10;99.90;;;;;;5031850;28;20424;-88
2022/12/28 04:09:33;;;;;;;5.40;2.53;;;9.10;99.90;;;;;;5031172;28;20203;-86
2022/12/28 04:11:59;;;;;;;3.90;1.73;;;9.20;99.90;;;;;;5010844;28;20187;-86
2022/12/28 04:14:25;;;;;;;5.07;2.03;;;9.20;99.90;;;;;;5013991;28;20369;-86
2022/12/28 04:16:50;;;;;;;3.87;2.43;;;9.20;99.90;;;;;;5029833;28;20194;-85
2022/12/28 04:19:16;;;;;;;4.73;2.17;;;9.20;99.90;;;;;;5016588;28;20202;-86
2022/12/28 04:21:41;;;;;;;3.87;2.03;;;9.20;99.90;;;;;;5033909;28;20198;-86
2022/12/28 04:24:07;;;;;;;4.90;2.50;;;9.30;60.50;;;;;;5027997;28;20200;-87
2022/12/28 04:26:32;;;;;;;4.17;2.60;;;9.30;53.50;;;;;;5033706;28;20848;-86
2022/12/28 04:29:00;;;;;;;2.97;2.03;;;9.30;99.90;;;;;;5034545;28;20214;-86
2022/12/28 04:31:27;;;;;;;4.63;1.87;;;9.30;99.90;;;;;;5034512;28;20265;-86
2022/12/28 04:33:56;;;;;;;3.40;1.60;;;9.30;76.00;;;;;;5035661;28;20417;-87
2022/12/28 04:36:21;;;;;;;3.50;1.80;;;9.30;34.70;;;;;;5033360;28;20445;-86
2022/12/28 04:38:47;;;;;;;4.67;2.47;;;9.30;1.00;;;;;;5031694;28;20448;-85
2022/12/28 04:41:15;;;;;;;4.03;2.80;;;9.40;1.00;;;;;;5029715;28;20214;-86
2022/12/28 04:43:41;;;;;;;2.57;1.50;;;9.40;19.30;;;;;;5034500;28;20186;-86
2022/12/28 04:46:10;;;;;;;1.70;1.43;;;9.40;1.00;;;;;;5031783;28;20468;-86
2022/12/28 04:48:36;;;;;;;7.07;2.47;;;9.40;1.00;;;;;;5035549;28;20190;-86
2022/12/28 04:51:07;;;;;;;4.50;2.03;;;9.40;16.60;;;;;;5016787;28;20437;-86
2022/12/28 04:53:38;;;;;;;6.57;1.80;;;9.40;71.10;;;;;;5017255;28;20210;-86
2022/12/28 04:56:05;;;;;;;9.13;2.40;;;9.40;99.90;;;;;;5030521;28;20461;-86
2022/12/28 04:58:31;;;;;;;5.07;1.90;;;9.40;99.90;;;;;;5033418;28;20461;-87
2022/12/28 05:01:23;;;;;;;4.93;2.00;;;9.40;99.90;;;;;;5033662;28;21126;-86
2022/12/28 05:03:50;;;;;;;3.70;2.03;;;9.50;99.90;;;;;;5022394;28;20201;-86
2022/12/28 05:06:17;;;;;;;6.50;2.20;;;9.50;99.90;;;;;;5033062;28;20551;-87
2022/12/28 05:08:44;;;;;;;5.23;2.13;;;9.50;99.90;;;;;;5034938;28;20441;-86
2022/12/28 05:11:16;;;;;;;1.90;1.57;;;9.50;99.90;;;;;;5016330;28;20436;-85
2022/12/28 05:13:42;;;;;;;4.53;2.20;;;9.50;99.90;;;;;;5021937;28;20430;-89
2022/12/28 05:16:10;;;;;;;5.77;2.20;;;9.50;99.90;;;;;;5058033;28;20781;-88
2022/12/28 05:18:36;;;;;;;4.60;2.30;;;9.50;99.90;;;;;;5040004;28;20532;-85
2022/12/28 05:21:04;;;;;;;3.20;2.00;;;9.50;99.90;;;;;;5033144;28;20441;-86
2022/12/28 05:23:31;;;;;;;6.50;2.80;;;9.50;99.90;;;;;;5033696;28;20516;-84
2022/12/28 05:25:57;;;;;;;8.63;2.73;;;9.50;99.90;;;;;;5032549;28;20480;-86
2022/12/28 05:28:23;;;;;;;2.40;2.03;;;9.60;99.90;;;;;;5014905;28;20492;-86
2022/12/28 05:30:49;;;;;;;4.67;1.70;;;9.60;1.00;;;;;;5027879;28;20185;-86
2022/12/28 05:33:15;;;;;;;4.50;2.10;;;9.60;1.00;;;;;;5013117;28;20445;-86
2022/12/28 05:35:41;;;;;;;6.40;1.97;;;9.60;1.00;;;;;;5033105;28;20421;-86
2022/12/28 05:38:06;;;;;;;4.00;1.70;;;9.60;1.00;;;;;;5011853;28;20212;-86
2022/12/28 05:40:32;;;;;;;6.67;1.80;;;9.60;1.00;;;;;;5033353;28;20248;-85
2022/12/28 05:42:58;;;;;;;3.87;2.10;;;9.60;1.00;;;;;;5031177;28;20713;-86
2022/12/28 05:45:24;;;;;;;8.00;2.70;;;9.60;1.00;;;;;;5032500;28;20837;-86
2022/12/28 05:47:49;;;;;;;3.07;1.70;;;9.60;1.00;;;;;;5025241;28;20527;-85
2022/12/28 05:50:15;;;;;;;3.43;2.07;;;9.60;1.00;;;;;;5015249;28;20185;-86
2022/12/28 05:52:41;;;;;;;2.40;1.50;;;9.60;96.60;;;;;;5011425;28;20193;-86
2022/12/28 05:55:06;;;;;;;4.60;1.90;;;9.60;99.90;;;;;;5031840;28;20268;-86
2022/12/28 05:57:32;;;;;;;5.03;1.77;;;9.60;99.90;;;;;;5029722;28;20206;-86
2022/12/28 05:59:57;;;;;;;6.87;2.60;;;9.60;99.90;;;;;;5014971;28;20209;-86
2022/12/28 06:02:26;;;;;;;3.73;1.43;;;9.60;99.90;;;;;;5031183;28;20186;-87
2022/12/28 06:04:59;;;;;;;2.50;1.20;;;9.60;99.90;;;;;;5027299;28;20236;-86
2022/12/28 06:07:25;;;;;;;4.60;1.60;;;9.70;99.90;;;;;;5014907;28;20471;-86
2022/12/28 06:09:51;;;;;;;3.40;1.43;;;9.70;99.90;;;;;;5015230;28;20579;-86
2022/12/28 06:12:16;;;;;;;2.40;1.50;;;9.70;99.90;;;;;;5031533;28;20253;-87
2022/12/28 06:14:42;;;;;;;4.97;1.70;;;9.70;1.00;;;;;;5015430;28;20747;-86
2022/12/28 06:17:07;;;;;;;3.80;1.70;;;9.70;1.00;;;;;;5032329;28;20948;-86
2022/12/28 06:19:33;;;;;;;2.90;1.37;;;9.70;1.00;;;;;;5032731;28;20198;-86
2022/12/28 06:21:58;;;;;;;5.10;1.70;;;9.70;1.00;;;;;;5010515;28;20602;-86
2022/12/28 06:24:24;;;;;;;5.37;2.27;;;9.70;1.00;;;;;;5031471;28;20658;-87
2022/12/28 06:26:50;;;;;;;3.70;1.97;;;9.70;37.60;;;;;;5031450;28;20229;-86
2022/12/28 06:29:15;;;;;;;2.97;1.70;;;9.70;99.90;;;;;;5031199;28;20202;-86
2022/12/28 06:31:45;;;;;;;5.60;1.40;;;9.70;99.90;;;;;;5032404;28;20276;-85
2022/12/28 06:34:11;;;;;;;2.63;1.50;;;9.70;99.90;;;;;;5032328;28;20654;-85
2022/12/28 06:36:39;;;;;;;3.13;1.40;;;9.70;99.90;;;;;;5015978;28;20429;-86
2022/12/28 06:39:08;;;;;;;5.90;2.57;;;9.70;1.00;;;;;;5010822;28;20217;-86
2022/12/28 06:41:34;;;;;;;3.87;1.80;;;9.70;1.00;;;;;;5013576;28;20531;-86
2022/12/28 06:43:59;;;;;;;3.70;1.80;;;9.70;1.00;;;;;;5030035;28;20444;-86
2022/12/28 06:46:27;;;;;;;3.70;1.70;;;9.70;1.00;;;;;;5014438;28;20467;-86
2022/12/28 06:48:53;;;;;;;3.97;1.73;;;9.70;1.00;;;;;;5032017;28;20198;-87
2022/12/28 06:51:22;;;;;;;3.30;1.37;;;9.70;1.00;;;;;;5033085;28;20411;-86
2022/12/28 06:53:49;;;;;;;1.83;1.30;;;9.70;1.00;;;;;;5029955;28;20234;-86
2022/12/28 06:56:21;;;;;;;5.53;2.03;;;9.70;1.00;;;;;;5012302;28;20472;-86
2022/12/28 06:58:50;;;;;;;4.53;1.87;;;9.70;37.30;;;;;;5013282;28;20465;-86
2022/12/28 07:01:19;;;;;;;3.20;1.60;;;9.70;99.90;;;;;;5014051;28;20424;-86
2022/12/28 07:03:51;;;;;;;3.93;1.40;;;9.70;99.90;;;;;;5006134;28;20547;-85
2022/12/28 07:06:18;;;;;;;4.77;2.57;;;9.70;99.90;;;;;;5015094;28;20548;-85
2022/12/28 07:08:45;;;;;;;3.93;1.20;;;9.70;99.90;;;;;;5029513;28;20453;-87
2022/12/28 07:11:19;;;;;;;1.97;1.30;;;9.70;99.90;;;;;;5032623;28;20833;-86
2022/12/28 07:14:19;;;;;;;3.73;1.33;;;9.70;99.90;;;;;;5011376;28;20437;-87
2022/12/28 07:16:44;;;;;;;4.00;1.90;;;9.70;99.90;;;;;;5032780;28;20512;-89
2022/12/28 07:19:10;;;;;;;3.63;1.73;;;9.70;58.50;;;;;;5030175;28;20537;-85
2022/12/28 07:21:38;;;;;;;2.10;1.30;;;9.70;38.10;;;;;;5032470;28;20182;-85
2022/12/28 07:24:04;;;;;;;2.13;1.13;;;9.80;3.90;;;;;;5030466;28;20209;-86
2022/12/28 07:26:35;;;;;;;4.90;0.93;;;9.80;1.00;;;;;;5032456;28;20814;-86
2022/12/28 07:29:11;;;;;;;2.07;1.10;;;9.80;1.00;;;;;;5043328;23;20497;-85
2022/12/28 07:31:39;;;;;;;4.57;1.53;;;9.80;1.00;;;;;;5012153;28;20445;-85
2022/12/28 07:34:34;;;;;;;4.70;1.40;;;9.80;1.00;;;;;;5012303;28;20457;-85
2022/12/28 07:37:03;;;;;;;2.70;1.30;;;9.90;1.00;;;;;;4976227;28;20926;-87
2022/12/28 07:39:29;;;;;;;1.80;1.20;;;9.90;1.00;;;;;;5008464;28;20453;-86
2022/12/28 07:41:59;;;;;;;2.20;1.40;;;10.00;1.00;;;;;;4996578;28;20437;-86
2022/12/28 07:44:25;;;;;;;2.40;1.17;;;10.00;1.00;;;;;;5004953;28;20196;-86
2022/12/28 07:47:03;;;;;;;3.40;1.00;;;10.00;99.90;;;;;;4991957;28;20881;-86
2022/12/28 07:49:29;;;;;;;2.33;1.10;;;10.00;99.90;;;;;;4994960;28;20202;-87
2022/12/28 07:51:57;;;;;;;2.57;0.97;;;10.00;99.90;;;;;;5012782;28;20414;-86
2022/12/28 07:54:28;;;;;;;5.33;1.20;;;10.10;99.90;;;;;;5016020;28;20254;-86
2022/12/28 07:57:01;;;;;;;4.20;1.80;;;10.10;99.90;;;;;;4999710;28;20417;-86
2022/12/28 07:59:27;;;;;;;4.60;1.20;;;10.10;99.90;;;;;;4998132;28;20474;-86
2022/12/28 08:01:53;;;;;;;1.40;0.80;;;10.10;99.90;;;;;;4997867;28;21122;-86
2022/12/28 08:04:18;;;;;;;4.83;1.30;;;10.10;99.90;;;;;;5016457;28;20546;-86
2022/12/28 08:06:59;;;;;;;1.67;1.33;;;10.10;99.90;;;;;;4998378;28;20574;-87
2022/12/28 08:09:24;;;;;;;1.70;1.20;;;10.10;99.90;;;;;;4999127;28;20202;-86
2022/12/28 08:11:50;;;;;;;2.50;1.20;;;10.20;99.90;;;;;;5016228;28;20424;-89
2022/12/28 08:14:31;;;;;;;2.53;1.00;;;10.20;99.90;;;;;;5005221;28;20189;-88
2022/12/28 08:16:57;;;;;;;2.80;1.13;;;10.20;49.40;;;;;;5007934;28;20195;-86
2022/12/28 08:19:23;;;;;;;6.77;2.00;;;10.20;1.00;;;;;;4994493;28;20523;-86
2022/12/28 08:21:51;;;;;;;2.00;1.40;;;10.30;1.00;;;;;;4996723;28;20179;-87
2022/12/28 08:24:18;;;;;;;1.73;1.10;;;10.30;1.00;;;;;;4985109;28;20723;-88
2022/12/28 08:26:45;;;;;;;2.10;1.40;;;10.30;1.00;;;;;;5014213;28;20453;-87
2022/12/28 08:29:30;;;;;;;1.40;1.00;;;10.30;1.00;;;;;;4992643;28;20477;-87
2022/12/28 08:32:02;;;;;;;2.60;1.00;;;10.40;1.00;;;;;;5005676;28;20503;-87
2022/12/28 08:34:30;;;;;;;3.10;1.00;;;10.40;99.90;;;;;;5005025;28;20434;-87
2022/12/28 08:36:59;;;;;;;1.07;0.87;;;10.40;99.90;;;;;;4997464;28;20782;-87
2022/12/28 08:42:10;;;;;;;6.03;1.80;;;10.40;73.80;;;;;;4994603;28;20429;-87
2022/12/28 08:44:41;;;;;;;4.30;1.20;;;10.40;1.00;;;;;;5002002;28;20804;-87
2022/12/28 08:47:13;;;;;;;1.90;1.00;;;10.50;1.00;;;;;;4997175;28;20210;-88
2022/12/28 08:49:47;;;;;;;2.13;1.00;;;10.50;1.00;;;;;;4994070;28;20446;-87
2022/12/28 08:52:16;;;;;;;1.60;1.00;;;10.50;1.00;;;;;;5013171;28;20451;-86
2022/12/28 08:54:45;;;;;;;2.50;0.93;;;10.60;1.00;;;;;;5013040;28;20941;-87
2022/12/28 08:57:16;;;;;;;3.00;1.63;;;10.60;99.90;;;;;;5003120;28;20937;-87
2022/12/28 09:00:03;;;;;;;3.37;1.30;;;10.60;99.90;;;;;;5025671;23;20507;-87
2022/12/28 09:02:28;;;;;;;1.50;1.00;;;10.60;99.90;;;;;;5020747;28;20440;-87
2022/12/28 09:05:12;;;;;;;1.50;0.77;;;10.70;1.00;;;;;;5030379;28;20925;-87
2022/12/28 09:07:41;;;;;;;3.20;1.70;;;10.70;1.00;;;;;;5034077;28;20182;-87
2022/12/28 09:10:10;;;;;;;1.40;1.17;;;10.70;1.00;;;;;;5047479;28;20492;-88
2022/12/28 09:15:40;;;;;;;1.50;0.90;;;10.80;1.00;;;;;;5033269;28;20774;-87
2022/12/28 09:18:33;;;;;;;1.60;1.00;;;10.80;99.90;;;;;;5014007;28;20456;-87
2022/12/28 09:21:10;;;;;;;2.70;0.90;;;10.80;99.90;;;;;;5013131;28;20529;-87
2022/12/28 09:24:06;;;;;;;7.30;1.20;;;11.00;94.00;;;;;;5015824;28;20532;-87
2022/12/28 09:26:36;;;;;;;2.30;1.10;;;11.00;1.00;;;;;;5011928;28;20508;-86
2022/12/28 09:29:04;;;;;;;1.10;1.00;;;11.10;1.00;;;;;;5025017;28;20437;-87
2022/12/28 09:31:31;;;;;;;5.07;1.00;;;11.20;99.90;;;;;;5014637;28;20948;-87
2022/12/28 09:34:00;;;;;;;1.13;0.83;;;11.30;99.90;;;;;;5015411;28;21201;-87
2022/12/28 09:36:35;;;;;;;2.07;1.20;;;11.40;99.90;;;;;;5013769;28;20449;-87
2022/12/28 09:39:12;;;;;;;1.80;1.03;;;11.40;57.10;;;;;;5022023;28;20495;-87
2022/12/28 09:41:54;;;;;;;2.33;0.80;;;11.40;1.00;;;;;;5014594;28;20472;-87
2022/12/28 09:44:45;;;;;;;2.80;1.10;;;11.40;1.00;;;;;;5028222;28;20850;-88
2022/12/28 09:47:44;;;;;;;1.57;0.90;;;11.40;1.00;;;;;;5018640;28;20504;-87
2022/12/28 09:50:28;;;;;;;1.20;1.10;;;11.50;1.00;;;;;;5013206;28;20452;-87
2022/12/28 09:53:16;;;;;;;5.30;1.40;;;11.50;1.00;;;;;;5016187;28;20452;-88
2022/12/28 09:56:10;;;;;;;5.00;1.20;;;11.60;1.00;;;;;;5029228;28;20441;-87
2022/12/28 09:58:44;;;;;;;1.60;1.00;;;11.60;99.90;;;;;;5005327;28;20480;-87
2022/12/28 10:01:21;;;;;;;1.90;1.07;;;11.60;99.90;;;;;;5008340;28;20453;-87
2022/12/28 10:03:50;;;;;;;1.40;1.00;;;11.60;99.90;;;;;;5017289;28;20445;-88
2022/12/28 10:06:43;;;;;;;2.67;1.20;;;11.60;99.90;;;;;;5020056;28;20465;-87
2022/12/28 10:09:34;;;;;;;2.97;1.00;;;11.60;99.90;;;;;;5007208;28;20456;-88
2022/12/28 10:12:23;;;;;;;2.50;1.00;;;11.70;99.90;;;;;;5015975;28;20495;-87
2022/12/28 10:15:14;;;;;;;1.93;1.20;;;11.70;99.90;;;;;;5020447;28;20438;-87
2022/12/28 10:17:40;;;;;;;3.53;1.10;;;11.70;99.90;;;;;;5003109;28;20507;-87
2022/12/28 10:20:19;;;;;;;3.23;1.20;;;11.80;99.90;;;;;;5001085;28;20434;-87
2022/12/28 10:22:55;;;;;;;3.37;1.30;;;11.80;99.90;;;;;;5028940;28;20532;-87
2022/12/28 10:25:40;;;;;;;1.93;1.30;;;11.90;54.20;;;;;;5010548;28;20859;-87
2022/12/28 10:28:18;;;;;;;2.07;1.07;;;12.00;3.70;;;;;;5005638;28;20457;-88
2022/12/28 10:31:04;;;;;;;2.80;1.00;;;12.00;1.00;;;;;;5008109;28;20440;-88
2022/12/28 10:33:40;;;;;;;1.90;1.30;;;12.00;1.00;;;;;;5012307;28;20802;-88
2022/12/28 10:36:13;;;;;;;3.83;1.30;;;12.00;1.00;;;;;;5007541;28;20471;-87
2022/12/28 10:38:47;;;;;;;5.10;2.07;;;12.00;1.00;;;;;;5012421;28;20457;-86
2022/12/28 10:41:15;;;;;;;4.83;2.33;;;12.00;1.00;;;;;;5026106;28;20471;-90
2022/12/28 10:43:45;;;;;;;4.67;1.77;;;12.00;1.00;;;;;;5028381;28;20443;-87
2022/12/28 10:46:22;;;;;;;2.50;1.63;;;12.00;1.00;;;;;;5025762;28;20803;-87
2022/12/28 10:48:57;;;;;;;4.37;1.50;;;12.10;1.00;;;;;;5014364;28;20466;-87
2022/12/28 10:51:30;;;;;;;2.93;1.43;;;12.10;1.00;;;;;;5016400;28;20798;-87
2022/12/28 10:53:59;;;;;;;3.07;1.37;;;12.10;1.00;;;;;;5011889;28;20441;-87
2022/12/28 10:56:30;;;;;;;2.03;1.20;;;12.10;1.00;;;;;;5013409;28;20446;-87
2022/12/28 10:59:14;;;;;;;2.57;1.30;;;12.10;1.00;;;;;;5015393;28;20567;-87
2022/12/28 11:01:41;;;;;;;1.50;1.03;;;12.10;1.00;;;;;;5015302;28;20855;-89
2022/12/28 11:04:17;;;;;;;1.63;1.10;;;12.10;1.00;;;;;;5010709;28;20440;-87
2022/12/28 11:06:56;;;;;;;2.80;1.30;;;12.10;1.00;;;;;;5019036;28;20468;-88
2022/12/28 11:09:30;;;;;;;2.90;1.43;;;12.20;1.00;;;;;;5018835;28;20483;-87
2022/12/28 11:12:16;;;;;;;1.60;1.40;;;12.30;99.90;;;;;;5028281;28;20990;-88
2022/12/28 11:14:42;;;;;;;4.07;1.83;;;12.40;99.90;;;;;;5005547;28;20949;-87
2022/12/28 11:17:19;;;;;;;4.23;1.40;;;12.40;99.90;;;;;;5021673;28;20444;-88
2022/12/28 11:19:49;;;;;;;1.83;1.00;;;12.60;99.90;;;;;;5007789;28;20317;-87
2022/12/28 11:22:46;;;;;;;;;;;;;;;;;;;;;
2022/12/28 11:25:36;;;;;;;;;;;;;;;;;;;;;
2022/12/28 11:28:29;;;;;;;3.97;1.20;;;12.80;99.90;;;;;;5027477;28;20957;-89
2022/12/28 11:31:04;;;;;;;3.27;1.43;;;12.90;65.90;;;;;;5023291;28;20462;-87
2022/12/28 11:33:40;;;;;;;2.57;1.37;;;12.80;20.40;;;;;;5012265;28;20444;-91
2022/12/28 11:36:17;;;;;;;2.10;1.20;;;12.70;1.00;;;;;;5008752;28;20953;-87
2022/12/28 11:45:34;;;;;;;3.47;1.10;;;12.80;1.00;;;;;;4949480;29;20492;-86
2022/12/28 11:54:38;;;;;;;3.53;1.20;;;12.60;1.00;;;;;;4975591;28;20487;-87
2022/12/28 11:57:34;;;;;;;2.37;1.20;;;12.60;1.00;;;;;;5004943;28;20434;-88
2022/12/28 12:00:22;;;;;;;3.50;1.23;;;12.50;1.00;;;;;;4988658;28;20531;-87
2022/12/28 12:02:52;;;;;;;5.60;1.60;;;12.50;1.00;;;;;;5006765;28;20490;-89
2022/12/28 12:05:37;;;;;;;1.90;1.30;;;12.50;1.00;;;;;;4982777;28;20535;-87
2022/12/28 12:08:17;;;;;;;1.63;0.90;;;12.60;1.00;;;;;;4997830;28;20465;-87
2022/12/28 12:11:12;;;;;;;3.67;1.20;;;12.50;1.00;;;;;;4989941;28;20442;-90
2022/12/28 12:13:47;;;;;;;2.73;1.10;;;12.50;1.00;;;;;;4990716;28;20442;-87
2022/12/28 12:16:28;;;;;;;4.33;1.20;;;12.50;1.00;;;;;;4983605;28;20426;-87
2022/12/28 12:18:58;;;;;;;2.03;0.90;;;12.50;1.00;;;;;;4993739;28;20461;-87
2022/12/28 12:21:31;;;;;;;1.97;1.17;;;12.40;1.00;;;;;;4993546;28;20970;-88
2022/12/28 12:24:08;;;;;;;6.33;1.57;;;12.30;1.00;;;;;;4992228;28;20396;-87
2022/12/28 12:26:44;;;;;;;1.90;1.17;;;12.20;1.00;;;;;;4985369;28;20840;-89
2022/12/28 12:29:30;;;;;;;4.13;1.23;;;12.20;1.00;;;;;;4996697;28;20462;-88
2022/12/28 12:32:01;;;;;;;4.00;1.47;;;12.10;1.00;;;;;;4999026;28;20433;-87
2022/12/28 12:34:54;;;;;;;3.43;1.27;;;12.10;4.60;;;;;;5003583;28;20461;-88
2022/12/28 12:37:46;;;;;;;2.60;1.30;;;12.10;12.50;;;;;;4988771;28;20848;-87
2022/12/28 12:44:19;;;;;;;1.63;1.30;;;12.00;1.00;;;;;;4946753;28;20432;-87
2022/12/28 12:47:35;;;;;;;1.77;1.20;;;12.00;1.00;;;;;;4942348;29;20492;-88
2022/12/28 12:50:19;;;;;;;1.40;1.00;;;12.00;3.30;;;;;;4952757;28;20467;-87
2022/12/28 12:52:56;;;;;;;1.80;1.17;;;12.00;3.10;;;;;;4942145;29;20446;-88
2022/12/28 12:56:01;;;;;;;2.57;1.20;;;11.90;16.20;;;;;;4975015;28;20447;-87
2022/12/28 12:58:53;;;;;;;2.23;1.80;;;11.90;40.00;;;;;;5036512;28;20447;-90
2022/12/28 13:01:35;;;;;;;3.83;1.90;;;11.90;58.80;;;;;;5023678;28;20457;-87
2022/12/28 13:04:37;;;;;;;2.07;1.20;;;11.90;83.20;;;;;;4998092;28;20438;-87
2022/12/28 13:07:28;;;;;;;3.77;1.50;;;11.90;92.30;;;;;;4997096;28;20477;-87
2022/12/28 13:10:03;;;;;;;3.73;1.80;;;11.80;99.90;;;;;;4990363;28;20480;-85
2022/12/28 13:12:32;;;;;;;4.00;1.60;;;11.80;99.90;;;;;;5003863;28;20481;-87
2022/12/28 13:15:04;;;;;;;7.13;2.13;;;11.90;99.90;;;;;;4993486;28;20451;-88
2022/12/28 13:17:30;;;;;;;2.40;1.27;;;11.90;99.90;;;;;;4994738;28;20537;-87
2022/12/28 13:20:27;;;;;;;5.50;1.40;;;11.90;99.90;;;;;;4982256;28;20552;-87
2022/12/28 13:22:53;;;;;;;2.83;1.30;;;11.90;94.00;;;;;;4982022;28;20638;-87
2022/12/28 13:25:28;;;;;;;2.27;1.27;;;11.90;88.50;;;;;;4993395;28;20473;-86
2022/12/28 13:27:55;;;;;;;3.80;1.50;;;11.90;52.20;;;;;;5001471;28;20446;-87
2022/12/28 13:30:22;;;;;;;3.10;1.73;;;11.90;36.70;;;;;;4995274;28;20435;-88
2022/12/28 13:32:51;;;;;;;1.73;1.20;;;11.90;31.20;;;;;;4994159;28;20462;-87
2022/12/28 13:35:18;;;;;;;2.10;1.50;;;11.90;23.50;;;;;;4995061;28;20430;-88
2022/12/28 13:38:01;;;;;;;7.43;1.87;;;11.90;15.00;;;;;;4990823;28;20440;-87
2022/12/28 13:40:28;;;;;;;4.00;1.60;;;11.90;1.00;;;;;;4993632;28;20466;-87
2022/12/28 13:43:22;;;;;;;3.80;2.00;;;11.90;1.00;;;;;;4991163;28;20435;-87
2022/12/28 13:45:54;;;;;;;2.60;1.67;;;11.90;1.00;;;;;;4995863;28;20479;-87
2022/12/28 13:48:20;;;;;;;6.23;1.73;;;11.90;1.00;;;;;;4997744;28;20487;-87
2022/12/28 13:50:49;;;;;;;3.80;1.63;;;12.00;1.00;;;;;;4992715;28;20805;-87
2022/12/28 13:53:22;;;;;;;2.63;1.97;;;12.00;1.00;;;;;;4992701;28;20445;-87
2022/12/28 13:56:15;;;;;;;3.87;1.63;;;12.10;1.00;;;;;;4992590;28;20439;-87
2022/12/28 13:58:59;;;;;;;3.50;1.80;;;12.10;1.00;;;;;;4991509;28;20860;-87
2022/12/28 14:01:34;;;;;;;4.90;2.00;;;12.20;1.00;;;;;;4996084;28;20430;-88
2022/12/28 14:04:04;;;;;;;4.70;2.00;;;12.10;1.00;;;;;;4989096;28;20435;-87
2022/12/28 14:06:29;;;;;;;5.17;2.10;;;12.10;1.00;;;;;;4990131;28;20521;-87
2022/12/28 14:09:02;;;;;;;3.40;1.60;;;12.00;1.00;;;;;;4984554;28;20492;-87
2022/12/28 14:11:29;;;;;;;3.37;1.93;;;12.00;1.00;;;;;;4987091;28;20216;-88
2022/12/28 14:13:55;;;;;;;3.60;1.70;;;12.10;1.00;;;;;;4990133;28;20488;-86
2022/12/28 14:16:30;;;;;;;7.43;2.17;;;12.00;1.00;;;;;;4993208;28;20477;-87
2022/12/28 14:18:57;;;;;;;5.13;1.83;;;12.00;1.00;;;;;;4990058;28;20469;-87
2022/12/28 14:21:40;;;;;;;11.30;1.80;;;12.00;1.00;;;;;;4991141;28;20477;-87